createdAt,value
2023-03-11T00:03:02.053Z,96496.25
2023-03-11T00:08:12.702Z,96504.20
2023-03-11T00:13:20.468Z,96503.29
2023-03-11T00:18:31.863Z,96511.64
2023-03-11T00:23:39.570Z,96506.70
2023-03-11T00:28:48.804Z,96502.85
2023-03-11T00:33:57.543Z,96493.82
2023-03-11T00:39:06.765Z,96485.98
2023-03-11T00:44:17.006Z,96476.04
2023-03-11T00:49:25.095Z,96479.11
2023-03-11T00:54:33.177Z,96478.80
2023-03-11T00:59:42.976Z,96481.42
2023-03-11T01:04:54.748Z,96481.34
2023-03-11T01:10:02.653Z,96474.38
2023-03-11T01:15:18.094Z,96471.31
2023-03-11T01:20:26.643Z,96473.61
2023-03-11T01:25:34.191Z,96458.46
2023-03-11T01:30:43.443Z,96456.39
2023-03-11T01:35:51.138Z,96455.85
2023-03-11T01:40:58.472Z,96457.27
2023-03-11T01:46:14.534Z,96460.42
2023-03-11T01:51:27.181Z,96461.27
2023-03-11T01:56:35.819Z,96463.60
2023-03-11T02:01:50.807Z,96457.35
2023-03-11T02:06:59.230Z,96459.36
2023-03-11T02:12:10.054Z,96462.95
2023-03-11T02:17:17.488Z,96466.25
2023-03-11T02:22:25.595Z,96473.20
2023-03-11T02:27:38.060Z,96478.48
2023-03-11T02:32:48.894Z,96478.62
2023-03-11T02:37:57.209Z,96482.48
2023-03-11T02:43:07.651Z,96494.04
2023-03-11T02:48:16.856Z,96499.35
2023-03-11T02:53:24.503Z,96505.51
2023-03-11T02:58:31.834Z,96504.77
2023-03-11T03:03:39.028Z,96507.90
2023-03-11T03:08:46.331Z,96509.14
2023-03-11T03:13:53.715Z,96505.84
2023-03-11T03:19:01.536Z,96505.63
2023-03-11T03:24:09.785Z,96509.71
2023-03-11T03:29:17.172Z,96511.23
2023-03-11T03:34:25.472Z,96509.49
2023-03-11T03:39:33.731Z,96510.11
2023-03-11T03:44:41.163Z,96502.90
2023-03-11T03:49:48.848Z,96504.02
2023-03-11T03:54:56.620Z,96500.10
2023-03-11T04:00:05.646Z,96500.10
2023-03-11T04:05:15.160Z,96499.50
2023-03-11T04:10:22.961Z,96496.98
2023-03-11T04:15:30.422Z,96494.10
2023-03-11T04:20:39.755Z,96495.86
2023-03-11T04:25:46.904Z,96491.45
2023-03-11T04:30:52.581Z,96478.61
2023-03-11T04:36:00.478Z,96469.91
2023-03-11T04:41:09.220Z,96462.46
2023-03-11T04:46:16.912Z,96461.50
2023-03-11T04:51:24.184Z,96464.34
2023-03-11T04:56:29.990Z,96467.34
2023-03-11T05:01:38.109Z,96475.60
2023-03-11T05:06:45.435Z,96489.15
2023-03-11T05:15:24.776Z,96495.39
2023-03-11T05:20:28.583Z,96492.70
2023-03-11T05:25:32.864Z,96493.99
2023-03-11T05:30:36.781Z,96497.02
2023-03-11T05:35:40.692Z,96493.30
2023-03-11T05:40:44.536Z,96492.53
2023-03-11T05:45:48.420Z,96497.54
2023-03-11T05:50:52.287Z,96505.20
2023-03-11T05:56:01.530Z,96504.90
2023-03-11T06:01:10.642Z,96515.68
2023-03-11T06:06:14.930Z,96513.14
2023-03-11T06:11:19.204Z,96522.81
2023-03-11T06:16:23.795Z,96532.17
2023-03-11T06:21:28.514Z,96538.79
2023-03-11T06:26:33.231Z,96551.00
2023-03-11T06:31:37.218Z,96567.63
2023-03-11T06:36:41.267Z,96586.08
2023-03-11T06:41:45.251Z,96595.07
2023-03-11T06:46:49.141Z,96601.18
2023-03-11T06:51:53.780Z,96608.59
2023-03-11T06:56:57.938Z,96620.21
2023-03-11T07:02:03.877Z,96634.78
2023-03-11T07:07:07.823Z,96644.64
2023-03-11T07:12:12.150Z,96649.52
2023-03-11T07:17:16.699Z,96657.48
2023-03-11T07:22:20.644Z,96662.33
2023-03-11T07:27:24.504Z,96667.38
2023-03-11T07:32:28.660Z,96674.52
2023-03-11T07:37:33.015Z,96686.42
2023-03-11T07:42:37.349Z,96692.33
2023-03-11T07:47:41.203Z,96698.30
2023-03-11T07:52:45.294Z,96707.61
2023-03-11T07:57:51.234Z,96716.91
2023-03-11T08:02:55.511Z,96722.25
2023-03-11T08:07:59.753Z,96737.91
2023-03-11T08:13:03.685Z,96745.53
2023-03-11T08:18:10.064Z,96750.96
2023-03-11T08:23:15.098Z,96748.55
2023-03-11T08:28:18.920Z,96756.19
2023-03-11T08:33:22.848Z,96758.46
2023-03-11T08:38:26.996Z,96758.26
2023-03-11T08:43:30.865Z,96763.80
2023-03-11T08:48:35.598Z,96773.45
2023-03-11T08:53:40.137Z,96775.92
2023-03-11T08:58:44.323Z,96784.79
2023-03-11T09:03:48.853Z,96790.04
2023-03-11T09:08:52.923Z,96793.31
2023-03-11T09:13:56.936Z,96802.18
2023-03-11T09:19:03.504Z,96808.25
2023-03-11T09:24:08.492Z,96815.89
2023-03-11T09:29:12.366Z,96819.63
2023-03-11T09:34:16.381Z,96826.11
2023-03-11T09:39:20.542Z,96826.08
2023-03-11T09:44:32.817Z,96836.79
2023-03-11T09:50:05.532Z,96844.23
2023-03-11T09:55:31.857Z,96843.80
2023-03-11T10:00:36.461Z,96863.55
2023-03-11T10:05:42.833Z,96874.53
2023-03-11T10:10:54.955Z,96877.92
2023-03-11T10:16:09.130Z,96889.65
2023-03-11T10:21:25.664Z,96895.55
2023-03-11T10:26:34.121Z,96904.95
2023-03-11T10:31:43.848Z,96906.45
2023-03-11T10:36:57.136Z,96916.48
2023-03-11T10:42:02.814Z,96914.92
2023-03-11T10:47:15.497Z,96928.31
2023-03-11T10:52:20.022Z,96935.69
2023-03-11T10:57:26.696Z,96944.34
2023-03-11T11:02:33.078Z,96944.89
2023-03-11T11:07:40.906Z,96956.08
2023-03-11T11:12:59.416Z,96970.01
2023-03-11T11:18:07.908Z,96969.54
2023-03-11T11:23:26.967Z,96974.88
2023-03-11T11:28:31.726Z,96986.69
2023-03-11T11:33:49.483Z,96997.16
2023-03-11T11:38:54.529Z,96999.98
2023-03-11T11:44:03.126Z,97009.95
2023-03-11T11:49:18.047Z,97019.17
2023-03-11T11:54:27.741Z,97037.92
2023-03-11T11:59:31.938Z,97048.67
2023-03-11T12:04:50.088Z,97058.15
2023-03-11T12:10:21.431Z,97062.35
2023-03-11T12:15:29.496Z,97078.11
2023-03-11T12:20:37.619Z,97086.63
2023-03-11T12:25:51.906Z,97097.70
2023-03-11T12:31:00.166Z,97118.69
2023-03-11T12:36:09.750Z,97148.53
2023-03-11T12:41:30.348Z,97170.16
2023-03-11T12:47:11.079Z,97193.46
2023-03-11T12:52:21.322Z,97214.95
2023-03-11T12:57:35.227Z,97232.23
2023-03-11T13:03:10.600Z,97248.02
2023-03-11T13:08:16.969Z,97271.70
2023-03-11T13:13:38.410Z,97286.20
2023-03-11T13:18:43.347Z,97291.28
2023-03-11T13:23:47.281Z,97309.02
2023-03-11T13:29:09.115Z,97336.73
2023-03-11T13:34:16.524Z,97352.23
2023-03-11T13:39:37.708Z,97368.02
2023-03-11T13:44:42.437Z,97378.48
2023-03-11T13:49:52.748Z,97389.20
2023-03-11T13:55:02.711Z,97400.86
2023-03-11T14:00:17.156Z,97415.48
2023-03-11T14:05:25.004Z,97428.44
2023-03-11T14:10:31.149Z,97442.48
2023-03-11T14:15:44.498Z,97450.48
2023-03-11T14:20:49.997Z,97462.45
2023-03-11T14:26:01.426Z,97477.39
2023-03-11T14:31:06.186Z,97492.07
2023-03-11T14:36:15.170Z,97517.71
2023-03-11T14:41:19.126Z,97531.27
2023-03-11T14:46:28.551Z,97546.18
2023-03-11T14:51:35.737Z,97561.24
2023-03-11T14:56:44.738Z,97569.33
2023-03-11T15:01:50.307Z,97580.40
2023-03-11T15:06:55.420Z,97604.33
2023-03-11T15:16:27.121Z,97628.45
2023-03-11T15:21:35.516Z,97639.59
2023-03-11T15:26:55.487Z,97647.16
2023-03-11T15:32:23.252Z,97646.25
2023-03-11T15:37:29.039Z,97665.13
2023-03-11T15:42:36.357Z,97681.95
2023-03-11T15:47:46.214Z,97691.75
2023-03-11T16:02:52.043Z,97708.70
2023-03-11T16:07:59.344Z,97715.02
2023-03-11T16:13:05.298Z,97718.94
2023-03-11T16:18:13.543Z,97729.80
2023-03-11T16:23:23.941Z,97742.84
2023-03-11T16:28:31.556Z,97752.42
2023-03-11T16:33:39.036Z,97755.86
2023-03-11T16:38:48.962Z,97762.17
2023-03-11T16:43:57.654Z,97767.05
2023-03-11T16:49:05.664Z,97778.86
2023-03-11T16:54:13.282Z,97790.40
2023-03-11T16:59:21.110Z,97799.21
2023-03-11T17:04:28.746Z,97810.48
2023-03-11T17:09:37.209Z,97823.48
2023-03-11T17:14:45.181Z,97840.34
2023-03-11T17:19:53.018Z,97860.40
2023-03-11T17:25:01.110Z,97877.20
2023-03-11T17:30:11.594Z,97884.08
2023-03-11T17:35:21.248Z,97892.63
2023-03-11T17:40:30.438Z,97898.16
2023-03-11T17:45:41.417Z,97921.28
2023-03-11T17:50:48.693Z,97937.25
2023-03-11T17:55:57.885Z,97954.64
2023-03-11T18:01:08.883Z,97965.60
2023-03-11T18:06:17.059Z,97982.20
2023-03-11T18:11:27.285Z,98001.11
2023-03-11T18:16:35.291Z,98009.69
2023-03-11T18:21:45.126Z,98026.37
2023-03-11T18:26:53.434Z,98043.94
2023-03-11T18:32:00.973Z,98056.78
2023-03-11T18:37:09.138Z,98068.04
2023-03-11T18:42:17.055Z,98075.70
2023-03-11T18:47:24.457Z,98083.45
2023-03-11T18:52:32.530Z,98095.18
2023-03-11T18:57:43.355Z,98105.94
2023-03-11T19:02:55.074Z,98106.81
2023-03-11T19:08:02.840Z,98110.71
2023-03-11T19:13:12.201Z,98115.09
2023-03-11T19:18:21.559Z,98119.65
2023-03-11T19:23:30.534Z,98128.67
2023-03-11T19:31:25.941Z,98169.83
2023-03-11T19:36:33.508Z,98179.14
2023-03-11T19:41:40.924Z,98184.09
2023-03-11T19:46:48.460Z,98192.77
2023-03-11T19:51:56.291Z,98196.39
2023-03-11T19:57:03.754Z,98208.71
2023-03-11T20:02:14.211Z,98216.26
2023-03-11T20:07:22.022Z,98229.42
2023-03-11T20:12:29.573Z,98237.02
2023-03-11T20:17:37.084Z,98237.75
2023-03-11T20:22:44.592Z,98244.95
2023-03-11T20:27:52.711Z,98251.30
2023-03-11T20:33:01.107Z,98259.05
2023-03-11T20:38:10.828Z,98264.52
2023-03-11T20:43:18.366Z,98262.48
2023-03-11T20:48:26.102Z,98262.92
2023-03-11T20:53:33.803Z,98266.10
2023-03-11T20:58:41.959Z,98271.10
2023-03-11T21:03:50.082Z,98279.50
2023-03-11T21:08:58.879Z,98277.80
2023-03-11T21:14:07.130Z,98279.27
2023-03-11T21:19:15.738Z,98278.95
2023-03-11T21:24:24.028Z,98280.35
2023-03-11T21:29:32.437Z,98279.57
2023-03-11T21:34:40.218Z,98282.33
2023-03-11T21:39:47.956Z,98289.69
2023-03-11T21:44:55.632Z,98282.74
2023-03-11T21:50:03.143Z,98290.39
2023-03-11T21:55:12.576Z,98299.67
2023-03-11T22:00:21.934Z,98306.18
2023-03-11T22:05:29.742Z,98311.29
2023-03-11T22:10:37.590Z,98318.50
2023-03-11T22:15:45.180Z,98324.00
2023-03-11T22:20:52.748Z,98328.43
2023-03-11T22:26:00.093Z,98328.06
2023-03-11T22:31:11.107Z,98332.60
2023-03-11T22:36:18.466Z,98333.55
2023-03-11T22:41:26.116Z,98337.16
2023-03-11T22:46:33.907Z,98343.41
2023-03-11T22:51:41.532Z,98344.55
2023-03-11T22:56:49.039Z,98347.50
2023-03-11T23:01:56.826Z,98349.34
2023-03-11T23:07:04.593Z,98354.48
2023-03-11T23:12:12.810Z,98358.63
2023-03-11T23:17:20.705Z,98358.35
2023-03-11T23:22:28.660Z,98358.19
2023-03-11T23:27:36.442Z,98367.06
2023-03-11T23:32:44.511Z,98371.28
2023-03-11T23:37:52.665Z,98375.23
2023-03-11T23:43:00.496Z,98380.19
2023-03-11T23:48:08.442Z,98377.92
2023-03-11T23:53:17.528Z,98381.21
2023-03-11T23:58:25.889Z,98385.20
